createdAt,value
2023-03-14T00:01:09.643Z,77.28
2023-03-14T00:03:36.358Z,77.49
2023-03-14T00:06:04.612Z,77.33
2023-03-14T00:08:31.841Z,77.10
2023-03-14T00:11:01.335Z,76.84
2023-03-14T00:13:27.996Z,76.90
2023-03-14T00:15:57.191Z,76.81
2023-03-14T00:18:24.537Z,76.95
2023-03-14T00:20:51.172Z,77.50
2023-03-14T00:23:17.762Z,77.06
2023-03-14T00:25:44.818Z,77.13
2023-03-14T00:28:11.520Z,77.09
2023-03-14T00:30:38.839Z,76.64
2023-03-14T00:33:05.770Z,76.52
2023-03-14T00:35:32.336Z,79.22
2023-03-14T00:37:58.972Z,81.77
2023-03-14T00:40:25.599Z,83.03
2023-03-14T00:42:52.148Z,83.26
2023-03-14T00:45:18.752Z,84.96
2023-03-14T00:47:46.641Z,85.18
2023-03-14T00:50:14.911Z,85.48
2023-03-14T00:52:41.544Z,85.05
2023-03-14T00:55:08.503Z,85.55
2023-03-14T00:57:35.086Z,85.43
2023-03-14T01:00:01.828Z,85.08
2023-03-14T01:02:29.386Z,84.42
2023-03-14T01:04:55.971Z,84.49
2023-03-14T01:07:22.574Z,84.71
2023-03-14T01:09:52.752Z,84.87
2023-03-14T01:12:19.474Z,84.68
2023-03-14T01:14:46.818Z,84.59
2023-03-14T01:17:13.528Z,84.93
2023-03-14T01:19:40.153Z,84.64
2023-03-14T01:22:07.072Z,85.07
2023-03-14T01:24:36.388Z,84.50
2023-03-14T01:27:03.906Z,84.13
2023-03-14T01:29:30.608Z,84.32
2023-03-14T01:31:57.161Z,84.33
2023-03-14T01:34:23.834Z,84.38
2023-03-14T01:36:50.416Z,84.47
2023-03-14T01:39:17.011Z,84.80
2023-03-14T01:41:43.897Z,84.95
2023-03-14T01:44:13.094Z,84.23
2023-03-14T01:46:42.503Z,83.70
2023-03-14T01:49:24.064Z,84.00
2023-03-14T01:52:08.528Z,84.28
2023-03-14T01:54:49.169Z,83.49
2023-03-14T01:57:21.019Z,83.39
2023-03-14T01:59:53.759Z,83.28
2023-03-14T02:02:21.269Z,83.36
2023-03-14T02:04:47.913Z,83.27
2023-03-14T02:07:23.533Z,82.85
2023-03-14T02:09:51.166Z,83.33
2023-03-14T02:12:19.136Z,82.67
2023-03-14T02:14:49.903Z,82.49
2023-03-14T02:17:19.223Z,82.43
2023-03-14T02:20:09.911Z,82.24
2023-03-14T02:22:37.946Z,82.18
2023-03-14T02:25:14.647Z,82.98
2023-03-14T02:27:41.377Z,82.34
2023-03-14T02:30:17.940Z,83.01
2023-03-14T02:32:49.385Z,82.90
2023-03-14T02:35:39.278Z,83.02
2023-03-14T02:38:21.827Z,83.32
2023-03-14T02:40:48.754Z,83.14
2023-03-14T02:43:15.364Z,83.12
2023-03-14T02:45:45.324Z,83.51
2023-03-14T02:48:35.576Z,83.64
2023-03-14T02:51:02.725Z,83.43
2023-03-14T02:53:32.420Z,83.94
2023-03-14T02:55:59.360Z,83.99
2023-03-14T02:58:27.699Z,83.61
2023-03-14T03:00:54.705Z,83.93
2023-03-14T03:03:21.424Z,84.03
2023-03-14T03:05:53.241Z,84.22
2023-03-14T03:08:21.356Z,84.32
2023-03-14T03:10:48.524Z,83.80
2023-03-14T03:13:15.814Z,83.37
2023-03-14T03:15:42.527Z,82.83
2023-03-14T03:18:09.563Z,83.43
2023-03-14T03:20:36.657Z,83.21
2023-03-14T03:23:03.951Z,83.14
2023-03-14T03:25:31.086Z,83.37
2023-03-14T03:27:58.469Z,82.76
2023-03-14T03:30:25.053Z,82.81
2023-03-14T03:32:51.729Z,83.01
2023-03-14T03:35:18.552Z,82.86
2023-03-14T03:37:45.141Z,82.60
2023-03-14T03:40:12.565Z,82.82
2023-03-14T03:42:39.312Z,83.60
2023-03-14T03:45:06.390Z,85.31
2023-03-14T03:47:32.915Z,86.39
2023-03-14T03:49:59.419Z,87.69
2023-03-14T03:52:25.988Z,88.13
2023-03-14T03:54:52.483Z,87.74
2023-03-14T03:57:19.410Z,87.47
2023-03-14T03:59:45.920Z,87.39
2023-03-14T04:02:13.038Z,87.29
2023-03-14T04:04:39.912Z,86.85
2023-03-14T04:07:06.945Z,87.27
2023-03-14T04:09:33.604Z,86.45
2023-03-14T04:12:00.925Z,86.37
2023-03-14T04:14:27.486Z,86.76
2023-03-14T04:16:54.032Z,87.32
2023-03-14T04:19:22.204Z,87.62
2023-03-14T04:21:48.760Z,88.28
2023-03-14T04:24:15.925Z,88.50
2023-03-14T04:26:42.506Z,89.45
2023-03-14T04:29:09.089Z,89.76
2023-03-14T04:31:36.124Z,89.93
2023-03-14T04:34:02.681Z,89.79
2023-03-14T04:36:29.238Z,89.87
2023-03-14T04:38:55.749Z,90.21
2023-03-14T04:41:22.400Z,90.64
2023-03-14T04:43:48.923Z,91.25
2023-03-14T04:46:15.798Z,91.35
2023-03-14T04:48:42.883Z,91.80
2023-03-14T04:51:09.424Z,90.98
2023-03-14T04:53:36.790Z,91.25
2023-03-14T04:56:03.610Z,91.40
2023-03-14T04:58:30.485Z,91.68
2023-03-14T05:00:57.127Z,91.95
2023-03-14T05:03:23.645Z,91.95
2023-03-14T05:05:50.257Z,92.36
2023-03-14T05:08:16.854Z,92.20
2023-03-14T05:10:43.402Z,92.31
2023-03-14T05:13:09.943Z,92.51
2023-03-14T05:15:36.469Z,92.70
2023-03-14T05:18:03.174Z,93.07
2023-03-14T05:20:30.064Z,93.06
2023-03-14T05:22:56.695Z,93.03
2023-03-14T05:25:23.332Z,93.03
2023-03-14T05:27:49.869Z,92.72
2023-03-14T05:30:16.667Z,93.20
2023-03-14T05:32:43.300Z,93.85
2023-03-14T05:35:10.756Z,93.48
2023-03-14T05:37:37.399Z,93.54
2023-03-14T05:40:05.769Z,93.88
2023-03-14T05:42:32.278Z,94.20
2023-03-14T05:44:58.848Z,94.51
2023-03-14T05:47:25.869Z,94.90
2023-03-14T05:49:52.453Z,94.75
2023-03-14T05:52:19.197Z,94.97
2023-03-14T05:54:45.769Z,94.87
2023-03-14T05:57:12.713Z,94.92
2023-03-14T05:59:39.296Z,94.60
2023-03-14T06:02:06.130Z,94.66
2023-03-14T06:04:33.015Z,95.04
2023-03-14T06:06:59.600Z,95.21
2023-03-14T06:09:26.501Z,95.23
2023-03-14T06:11:53.024Z,95.69
2023-03-14T06:14:19.710Z,95.57
2023-03-14T06:16:46.342Z,95.36
2023-03-14T06:19:12.909Z,95.51
2023-03-14T06:21:39.459Z,95.04
2023-03-14T06:24:08.270Z,95.22
2023-03-14T06:26:34.900Z,95.06
2023-03-14T06:29:04.408Z,95.02
2023-03-14T06:31:34.587Z,94.76
2023-03-14T06:34:01.218Z,95.43
2023-03-14T06:36:29.977Z,95.30
2023-03-14T06:38:56.884Z,95.70
2023-03-14T06:41:24.832Z,95.36
2023-03-14T06:43:51.421Z,95.64
2023-03-14T06:46:18.052Z,95.85
2023-03-14T06:48:44.780Z,94.84
2023-03-14T06:51:11.365Z,95.53
2023-03-14T06:53:38.419Z,96.10
2023-03-14T06:56:05.332Z,95.74
2023-03-14T06:58:31.924Z,95.80
2023-03-14T07:00:59.472Z,95.29
2023-03-14T07:03:26.219Z,95.64
2023-03-14T07:05:53.459Z,95.34
2023-03-14T07:08:20.178Z,95.41
2023-03-14T07:10:46.752Z,95.03
2023-03-14T07:13:13.363Z,95.57
2023-03-14T07:15:40.186Z,95.37
2023-03-14T07:18:06.830Z,95.26
2023-03-14T07:20:33.426Z,95.63
2023-03-14T07:23:04.190Z,95.24
2023-03-14T07:25:30.806Z,94.98
2023-03-14T07:27:57.350Z,94.62
2023-03-14T07:30:23.898Z,94.72
2023-03-14T07:32:50.585Z,94.36
2023-03-14T07:35:17.361Z,94.53
2023-03-14T07:37:43.897Z,94.61
2023-03-14T07:40:12.732Z,95.02
2023-03-14T07:42:39.230Z,95.42
2023-03-14T07:45:07.867Z,95.59
2023-03-14T07:47:34.620Z,95.85
2023-03-14T07:50:01.208Z,96.37
2023-03-14T07:52:27.912Z,96.20
2023-03-14T07:54:54.457Z,96.35
2023-03-14T07:57:20.957Z,96.85
2023-03-14T07:59:47.500Z,96.63
2023-03-14T08:02:14.959Z,96.57
2023-03-14T08:04:41.831Z,97.25
2023-03-14T08:07:08.492Z,96.99
2023-03-14T08:09:35.127Z,96.95
2023-03-14T08:12:01.714Z,97.33
2023-03-14T08:14:30.244Z,97.35
2023-03-14T08:16:56.839Z,96.47
2023-03-14T08:19:23.568Z,96.74
2023-03-14T08:21:50.227Z,95.43
2023-03-14T08:24:16.809Z,95.01
2023-03-14T08:26:46.535Z,94.53
2023-03-14T08:29:13.905Z,94.13
2023-03-14T08:31:40.494Z,93.47
2023-03-14T08:34:08.189Z,93.16
2023-03-14T08:36:35.249Z,93.36
2023-03-14T08:39:01.979Z,93.42
2023-03-14T08:41:28.988Z,93.90
2023-03-14T08:43:55.576Z,94.28
2023-03-14T08:46:22.250Z,94.14
2023-03-14T08:48:48.848Z,94.25
2023-03-14T08:51:15.621Z,94.09
2023-03-14T08:53:44.277Z,94.12
2023-03-14T08:56:11.341Z,93.18
2023-03-14T08:58:40.656Z,93.27
2023-03-14T09:01:08.912Z,93.48
2023-03-14T09:03:36.286Z,93.64
2023-03-14T09:06:08.194Z,93.88
2023-03-14T09:08:37.215Z,93.79
2023-03-14T09:11:07.466Z,90.89
2023-03-14T09:13:34.046Z,88.21
2023-03-14T09:16:00.871Z,88.34
2023-03-14T09:18:27.412Z,88.38
2023-03-14T09:20:54.279Z,87.13
2023-03-14T09:23:20.788Z,87.32
2023-03-14T09:25:47.301Z,87.86
2023-03-14T09:28:14.116Z,88.15
2023-03-14T09:30:40.738Z,86.82
2023-03-14T09:33:07.289Z,87.69
2023-03-14T09:35:35.162Z,88.49
2023-03-14T09:38:01.726Z,88.46
2023-03-14T09:40:35.064Z,87.83
2023-03-14T09:43:01.745Z,88.22
2023-03-14T09:45:41.548Z,89.11
2023-03-14T09:48:20.202Z,88.62
2023-03-14T09:50:51.330Z,88.89
2023-03-14T09:53:25.302Z,89.01
2023-03-14T09:55:53.413Z,89.89
2023-03-14T09:58:25.372Z,89.70
2023-03-14T10:00:56.884Z,90.25
2023-03-14T10:03:42.891Z,89.31
2023-03-14T10:06:14.723Z,88.09
2023-03-14T10:08:42.923Z,89.33
2023-03-14T10:11:18.512Z,87.54
2023-03-14T10:13:50.973Z,89.80
2023-03-14T10:16:17.539Z,88.51
2023-03-14T10:18:47.518Z,88.91
2023-03-14T10:21:29.361Z,89.33
2023-03-14T10:24:07.925Z,87.78
2023-03-14T10:26:36.235Z,88.29
2023-03-14T10:29:13.777Z,88.62
2023-03-14T10:34:29.350Z,89.29
2023-03-14T10:36:59.233Z,88.91
2023-03-14T10:39:30.805Z,88.39
2023-03-14T10:42:31.161Z,86.89
2023-03-14T10:45:01.623Z,84.86
2023-03-14T10:47:32.976Z,84.22
2023-03-14T10:50:25.206Z,83.92
2023-03-14T10:53:03.131Z,84.69
2023-03-14T10:55:41.205Z,83.62
2023-03-14T10:58:24.154Z,83.22
2023-03-14T11:01:06.275Z,82.72
2023-03-14T11:03:36.631Z,81.08
2023-03-14T11:06:22.286Z,80.53
2023-03-14T11:09:05.482Z,79.72
2023-03-14T11:11:33.089Z,80.34
2023-03-14T11:14:21.097Z,80.90
2023-03-14T11:16:54.649Z,79.36
2023-03-14T11:19:41.124Z,78.74
2023-03-14T11:22:19.902Z,79.11
2023-03-14T11:24:57.191Z,79.09
2023-03-14T11:27:34.264Z,76.88
2023-03-14T11:30:18.896Z,76.73
2023-03-14T11:33:03.299Z,77.55
2023-03-14T11:35:43.327Z,78.32
2023-03-14T11:38:14.974Z,76.66
2023-03-14T11:40:42.495Z,75.22
2023-03-14T11:43:16.830Z,75.88
2023-03-14T11:45:44.827Z,76.02
2023-03-14T11:48:30.427Z,77.76
2023-03-14T11:51:00.425Z,77.51
2023-03-14T11:54:05.986Z,77.36
2023-03-14T11:56:40.033Z,76.67
2023-03-14T11:59:14.630Z,75.90
2023-03-14T12:01:53.301Z,75.48
2023-03-14T12:04:48.034Z,74.78
2023-03-14T12:07:22.029Z,74.41
2023-03-14T12:09:52.113Z,72.82
2023-03-14T12:12:25.608Z,73.26
2023-03-14T12:15:22.451Z,73.33
2023-03-14T12:17:55.476Z,74.50
2023-03-14T12:20:27.369Z,72.26
2023-03-14T12:23:05.062Z,71.72
2023-03-14T12:25:34.481Z,70.85
2023-03-14T12:28:00.990Z,69.52
2023-03-14T12:30:33.507Z,71.33
2023-03-14T12:33:18.509Z,72.43
2023-03-14T12:35:50.412Z,73.61
2023-03-14T12:38:30.894Z,73.33
2023-03-14T12:41:18.482Z,74.54
2023-03-14T12:43:45.139Z,74.21
2023-03-14T12:46:28.678Z,73.48
2023-03-14T12:49:08.650Z,74.19
2023-03-14T12:51:39.128Z,75.42
2023-03-14T12:54:41.180Z,75.48
2023-03-14T12:57:15.180Z,69.85
2023-03-14T12:59:52.131Z,69.78
2023-03-14T13:02:24.630Z,69.55
2023-03-14T13:05:03.127Z,70.49
2023-03-14T13:07:40.403Z,70.41
2023-03-14T13:13:04.175Z,70.38
2023-03-14T13:15:41.916Z,70.15
2023-03-14T13:18:18.151Z,71.16
2023-03-14T13:21:04.922Z,69.10
2023-03-14T13:23:37.630Z,70.07
2023-03-14T13:26:07.156Z,70.76
2023-03-14T13:28:36.200Z,70.31
2023-03-14T13:31:04.442Z,69.93
2023-03-14T13:33:32.603Z,70.93
2023-03-14T13:36:08.431Z,72.00
2023-03-14T13:38:37.333Z,71.50
2023-03-14T13:41:08.933Z,72.36
2023-03-14T13:43:44.474Z,72.57
2023-03-14T13:46:24.314Z,71.17
2023-03-14T13:48:58.654Z,71.67
2023-03-14T13:51:28.700Z,72.09
2023-03-14T13:53:56.662Z,71.32
2023-03-14T13:56:26.008Z,71.19
2023-03-14T13:58:52.765Z,68.43
2023-03-14T14:01:24.342Z,67.32
2023-03-14T14:03:54.125Z,66.50
2023-03-14T14:06:37.601Z,67.06
2023-03-14T14:09:39.326Z,63.59
2023-03-14T14:12:17.843Z,59.58
2023-03-14T14:14:47.689Z,56.70
2023-03-14T14:17:21.585Z,54.27
2023-03-14T14:19:49.182Z,51.54
2023-03-14T14:22:16.015Z,51.72
2023-03-14T14:24:42.929Z,51.76
2023-03-14T14:27:27.627Z,51.44
2023-03-14T14:30:05.249Z,50.92
2023-03-14T14:32:40.262Z,50.97
2023-03-14T14:35:08.545Z,50.15
2023-03-14T14:37:41.797Z,50.10
2023-03-14T14:40:17.125Z,48.49
2023-03-14T14:42:43.941Z,49.19
2023-03-14T14:45:17.321Z,49.55
2023-03-14T14:47:56.370Z,49.25
2023-03-14T14:50:37.586Z,48.88
2023-03-14T14:53:22.593Z,48.64
2023-03-14T14:55:52.786Z,47.91
2023-03-14T14:58:30.781Z,48.10
2023-03-14T15:01:00.625Z,47.59
2023-03-14T15:03:29.910Z,47.95
2023-03-14T15:05:56.685Z,47.77
2023-03-14T15:08:23.465Z,48.92
2023-03-14T15:10:50.044Z,48.90
2023-03-14T15:13:16.556Z,48.43
2023-03-14T15:15:44.436Z,47.59
2023-03-14T15:18:19.811Z,48.19
2023-03-14T15:20:47.770Z,47.95
2023-03-14T15:23:16.698Z,48.32
2023-03-14T15:25:54.877Z,48.03
2023-03-14T15:28:25.421Z,47.35
2023-03-14T15:30:57.637Z,47.16
2023-03-14T15:33:27.407Z,45.67
2023-03-14T15:35:54.109Z,45.86
2023-03-14T15:38:23.765Z,46.36
2023-03-14T15:40:51.407Z,46.31
2023-03-14T15:43:19.271Z,45.97
2023-03-14T15:45:46.310Z,46.15
2023-03-14T15:48:16.449Z,46.83
2023-03-14T15:50:43.738Z,46.94
2023-03-14T15:53:11.096Z,47.14
2023-03-14T15:55:37.638Z,47.33
2023-03-14T15:58:04.444Z,46.69
2023-03-14T16:00:31.755Z,46.64
2023-03-14T16:02:58.237Z,47.16
2023-03-14T16:05:24.745Z,47.15
2023-03-14T16:07:53.749Z,47.54
2023-03-14T16:10:20.372Z,47.17
2023-03-14T16:12:46.869Z,47.41
2023-03-14T16:15:13.361Z,47.30
2023-03-14T16:17:41.264Z,46.90
2023-03-14T16:20:09.417Z,47.44
2023-03-14T16:22:36.937Z,47.58
2023-03-14T16:25:05.335Z,47.26
2023-03-14T16:27:32.243Z,47.60
2023-03-14T16:30:03.061Z,48.06
2023-03-14T16:32:30.280Z,48.58
2023-03-14T16:34:56.989Z,48.55
2023-03-14T16:37:24.920Z,49.20
2023-03-14T16:45:24.747Z,47.91
2023-03-14T16:47:51.263Z,47.06
2023-03-14T16:50:17.792Z,46.89
2023-03-14T16:52:47.045Z,46.98
2023-03-14T16:55:13.716Z,47.36
2023-03-14T16:57:40.362Z,46.76
2023-03-14T17:00:10.742Z,47.37
2023-03-14T17:02:38.406Z,48.92
2023-03-14T17:05:05.273Z,49.51
2023-03-14T17:07:31.820Z,50.01
2023-03-14T17:09:58.288Z,50.42
2023-03-14T17:12:24.838Z,50.50
2023-03-14T17:14:51.406Z,50.75
2023-03-14T17:17:18.077Z,50.03
2023-03-14T17:19:44.700Z,50.01
2023-03-14T17:22:23.242Z,49.66
2023-03-14T17:24:50.739Z,50.27
2023-03-14T17:27:20.187Z,50.44
2023-03-14T17:29:47.820Z,50.14
2023-03-14T17:32:17.584Z,50.62
2023-03-14T17:34:44.188Z,49.87
2023-03-14T17:37:10.762Z,49.12
2023-03-14T17:39:38.265Z,48.72
2023-03-14T17:42:05.714Z,48.07
2023-03-14T17:44:35.037Z,47.99
2023-03-14T17:47:02.221Z,48.16
2023-03-14T17:49:28.845Z,47.78
2023-03-14T17:51:57.852Z,47.76
2023-03-14T17:54:24.350Z,48.81
2023-03-14T17:56:50.910Z,48.16
2023-03-14T17:59:17.694Z,48.10
2023-03-14T18:01:44.325Z,48.64
2023-03-14T18:04:11.363Z,49.18
2023-03-14T18:06:37.949Z,49.05
2023-03-14T18:09:06.131Z,49.65
2023-03-14T18:11:33.046Z,50.27
2023-03-14T18:14:01.735Z,50.11
2023-03-14T18:16:28.371Z,50.08
2023-03-14T18:18:56.977Z,50.28
2023-03-14T18:21:23.795Z,50.63
2023-03-14T18:23:50.385Z,50.62
2023-03-14T18:26:17.408Z,51.17
2023-03-14T18:28:44.065Z,50.40
2023-03-14T18:31:12.712Z,50.76
2023-03-14T18:33:42.005Z,50.60
2023-03-14T18:36:10.542Z,50.37
2023-03-14T18:38:43.206Z,50.43
2023-03-14T18:41:12.765Z,50.84
2023-03-14T18:43:39.666Z,51.36
2023-03-14T18:46:07.642Z,51.67
2023-03-14T18:48:34.196Z,51.04
2023-03-14T18:51:01.140Z,51.14
2023-03-14T18:53:33.088Z,51.71
2023-03-14T18:56:00.850Z,50.43
2023-03-14T18:58:28.471Z,51.27
2023-03-14T19:00:59.880Z,51.27
2023-03-14T19:03:26.492Z,51.48
2023-03-14T19:05:58.119Z,51.52
2023-03-14T19:08:26.080Z,51.42
2023-03-14T19:10:55.526Z,50.78
2023-03-14T19:13:23.297Z,51.63
2023-03-14T19:15:49.839Z,51.88
2023-03-14T19:18:16.584Z,51.71
2023-03-14T19:20:45.027Z,51.42
2023-03-14T19:23:14.448Z,51.99
2023-03-14T19:25:45.115Z,51.88
2023-03-14T19:28:16.024Z,52.39
2023-03-14T19:30:42.592Z,52.77
2023-03-14T19:33:12.286Z,52.97
2023-03-14T19:35:38.864Z,53.57
2023-03-14T19:38:05.448Z,53.46
2023-03-14T19:40:37.273Z,53.64
2023-03-14T19:43:06.403Z,54.09
2023-03-14T19:45:36.637Z,54.21
2023-03-14T19:48:05.817Z,54.19
2023-03-14T19:50:35.484Z,54.62
2023-03-14T19:53:04.512Z,54.90
2023-03-14T19:55:34.828Z,54.53
2023-03-14T19:58:01.720Z,55.19
2023-03-14T20:00:28.694Z,55.61
2023-03-14T20:02:55.973Z,55.54
2023-03-14T20:05:24.515Z,55.71
2023-03-14T20:07:51.965Z,56.10
2023-03-14T20:10:24.858Z,55.93
2023-03-14T20:12:51.783Z,56.48
2023-03-14T20:15:24.376Z,56.15
2023-03-14T20:17:51.670Z,56.25
2023-03-14T20:20:20.492Z,56.23
2023-03-14T20:22:48.109Z,56.67
2023-03-14T20:25:20.299Z,56.87
2023-03-14T20:27:51.950Z,56.88
2023-03-14T20:30:22.738Z,57.03
2023-03-14T20:32:50.888Z,57.23
2023-03-14T20:35:23.710Z,57.16
2023-03-14T20:37:56.105Z,56.83
2023-03-14T20:40:24.129Z,56.67
2023-03-14T20:42:51.932Z,57.48
2023-03-14T20:45:18.788Z,57.16
2023-03-14T20:47:47.784Z,57.47
2023-03-14T20:50:14.337Z,57.92
2023-03-14T20:52:41.923Z,57.77
2023-03-14T20:55:08.996Z,57.88
2023-03-14T20:57:35.580Z,57.55
2023-03-14T21:00:03.314Z,57.51
2023-03-14T21:02:29.884Z,57.73
2023-03-14T21:04:58.131Z,58.36
2023-03-14T21:07:24.701Z,58.41
2023-03-14T21:09:51.237Z,58.16
2023-03-14T21:12:17.740Z,58.34
2023-03-14T21:14:44.370Z,58.29
2023-03-14T21:17:10.867Z,58.29
2023-03-14T21:19:37.373Z,58.10
2023-03-14T21:22:05.990Z,57.90
2023-03-14T21:24:34.529Z,58.48
2023-03-14T21:27:01.217Z,58.63
2023-03-14T21:29:27.896Z,58.49
2023-03-14T21:31:54.469Z,58.81
2023-03-14T21:34:21.169Z,59.15
2023-03-14T21:36:48.917Z,59.50
2023-03-14T21:39:15.899Z,59.28
2023-03-14T21:41:42.550Z,59.19
2023-03-14T21:44:09.302Z,59.48
2023-03-14T21:46:36.613Z,59.07
2023-03-14T21:49:04.142Z,59.08
2023-03-14T21:51:35.782Z,58.94
2023-03-14T21:54:02.327Z,58.79
2023-03-14T21:56:28.866Z,58.46
2023-03-14T21:59:00.051Z,59.09
2023-03-14T22:01:26.654Z,58.86
2023-03-14T22:03:53.682Z,58.57
2023-03-14T22:06:20.794Z,58.52
2023-03-14T22:08:47.450Z,58.61
2023-03-14T22:11:14.367Z,58.75
2023-03-14T22:13:40.934Z,58.32
2023-03-14T22:16:08.374Z,58.89
2023-03-14T22:18:36.542Z,58.51
2023-03-14T22:21:03.111Z,58.71
2023-03-14T22:23:29.696Z,58.89
2023-03-14T22:25:56.360Z,58.80
2023-03-14T22:28:22.944Z,59.05
2023-03-14T22:30:51.468Z,59.71
2023-03-14T22:33:22.030Z,59.24
2023-03-14T22:35:53.532Z,58.95
2023-03-14T22:38:20.332Z,58.86
2023-03-14T22:40:47.210Z,58.66
2023-03-14T22:43:13.789Z,58.76
2023-03-14T22:45:40.441Z,59.44
2023-03-14T22:48:08.038Z,59.10
2023-03-14T22:50:35.005Z,58.86
2023-03-14T22:53:03.766Z,59.12
2023-03-14T22:55:30.658Z,59.52
2023-03-14T22:57:59.079Z,59.06
2023-03-14T23:00:27.106Z,59.44
2023-03-14T23:02:59.895Z,59.93
2023-03-14T23:05:26.502Z,60.42
2023-03-14T23:07:54.058Z,60.22
2023-03-14T23:10:20.854Z,60.91
2023-03-14T23:12:47.454Z,61.27
2023-03-14T23:15:18.013Z,61.38
2023-03-14T23:17:50.712Z,61.86
2023-03-14T23:20:21.145Z,61.50
2023-03-14T23:22:53.366Z,61.91
2023-03-14T23:25:20.834Z,62.63
2023-03-14T23:27:51.298Z,62.67
2023-03-14T23:30:18.033Z,62.94
2023-03-14T23:32:45.069Z,62.84
2023-03-14T23:35:12.802Z,63.36
2023-03-14T23:37:40.090Z,63.14
2023-03-14T23:40:08.149Z,63.08
2023-03-14T23:42:36.044Z,63.93
2023-03-14T23:45:05.110Z,65.05
2023-03-14T23:47:33.701Z,65.64
2023-03-14T23:50:00.296Z,65.48
2023-03-14T23:52:30.457Z,66.25
2023-03-14T23:54:57.027Z,66.19
2023-03-14T23:57:23.598Z,67.02
2023-03-14T23:59:50.172Z,66.94
